Data for 03/23/2016

Time Sea-Level Adjusted Pressure Absolute Pressure Temperature Relative Humidity Dew Point   
(mb) (inHg) (mb) (inHg) (C) (F) (%) (C) (F)
00:05 1017 30.03 846 24.98 -1.7 28.9 95 -2.4 27.6
00:10 1017 30.03 846 24.98 -1.7 28.9 95 -2.4 27.6
00:15 1017 30.03 846 24.98 -1.7 28.9 95 -2.4 27.6
00:20 1017 30.03 846 24.98 -1.7 28.9 95 -2.5 27.6
00:25 1017 30.03 846 24.98 -1.7 28.9 95 -2.5 27.6
00:30 1017 30.03 846 24.98 -1.7 28.9 95 -2.4 27.6
00:35 1017 30.03 846 24.98 -1.7 28.9 95 -2.4 27.6
00:40 1017 30.03 846 24.98 -1.7 28.9 95 -2.5 27.6
00:45 1017 30.03 846 24.98 -1.7 28.9 95 -2.4 27.6
00:50 1017 30.03 846 24.98 -1.7 29 95 -2.4 27.6
00:55 1017 30.03 846 24.98 -1.7 28.9 95 -2.5 27.6
01:00 1017 30.03 846 24.98 -1.6 29 95 -2.4 27.7
01:05 1017 30.03 846 24.98 -1.7 29 95 -2.4 27.6
01:10 1017 30.03 846 24.98 -1.7 28.9 94 -2.5 27.5
01:15 1017 30.03 846 24.98 -1.7 28.9 95 -2.5 27.5
01:20 1017 30.03 847 25.01 -1.7 28.9 94 -2.5 27.4
01:25 1017 30.03 847 25.01 -1.8 28.8 94 -2.5 27.4
01:30 1017 30.03 847 25.01 -1.7 28.9 94 -2.5 27.4
01:35 1017 30.03 847 25.01 -1.7 28.9 94 -2.5 27.4
01:40 1018 30.06 847 25.01 -1.7 28.9 94 -2.5 27.4
01:45 1018 30.06 847 25.01 -1.8 28.8 94 -2.6 27.4
01:50 1018 30.06 847 25.01 -1.8 28.8 94 -2.6 27.4
01:55 1018 30.06 847 25.01 -1.8 28.8 94 -2.6 27.3
02:00 1018 30.06 847 25.01 -1.8 28.8 94 -2.6 27.3
02:05 1018 30.06 847 25.01 -1.8 28.7 94 -2.6 27.3
02:10 1018 30.06 847 25.01 -1.8 28.8 94 -2.6 27.3
02:15 1018 30.06 847 25.01 -1.8 28.7 94 -2.7 27.2
02:20 1018 30.06 847 25.01 -1.9 28.7 94 -2.7 27.2
02:25 1018 30.06 847 25.01 -1.8 28.8 94 -2.6 27.2
02:30 1018 30.06 847 25.01 -1.8 28.8 94 -2.6 27.3
02:35 1018 30.06 847 25.01 -1.8 28.8 94 -2.7 27.2
02:40 1018 30.06 847 25.01 -1.8 28.8 94 -2.7 27.2
02:45 1018 30.06 847 25.01 -1.8 28.8 94 -2.7 27.2
02:50 1018 30.06 847 25.01 -1.8 28.8 94 -2.7 27.2
02:55 1018 30.06 847 25.01 -1.8 28.8 93 -2.7 27.1
03:00 1018 30.06 847 25.01 -1.8 28.8 94 -2.7 27.2
03:05 1018 30.06 847 25.01 -1.8 28.8 94 -2.7 27.2
03:10 1018 30.06 847 25.01 -1.7 28.9 94 -2.6 27.3
03:15 1018 30.06 847 25.01 -1.7 28.9 94 -2.6 27.3
03:20 1018 30.06 847 25.01 -1.7 28.9 93 -2.7 27.2
03:25 1018 30.06 847 25.01 -1.7 28.9 94 -2.6 27.2
03:30 1018 30.06 847 25.01 -1.7 28.9 93 -2.6 27.2
03:35 1018 30.06 847 25.01 -1.7 28.9 93 -2.6 27.3
03:40 1018 30.06 847 25.01 -1.7 28.9 93 -2.6 27.3
03:45 1018 30.06 847 25.01 -1.7 29 94 -2.6 27.3
03:50 1018 30.06 847 25.01 -1.7 29 94 -2.6 27.4
03:55 1018 30.06 847 25.01 -1.6 29 93 -2.6 27.3
04:00 1018 30.06 847 25.01 -1.6 29.1 93 -2.6 27.4
04:05 1018 30.06 847 25.01 -1.7 29 93 -2.6 27.4
04:10 1018 30.06 847 25.01 -1.7 29 93 -2.7 27.2
04:15 1018 30.06 848 25.04 -1.8 28.7 93 -2.8 27
04:20 1018 30.06 848 25.04 -1.9 28.5 93 -2.9 26.8
04:25 1018 30.06 848 25.04 -2.1 28.3 94 -3 26.7
04:30 1018 30.06 848 25.04 -2.1 28.2 94 -2.9 26.7
04:35 1018 30.06 848 25.04 -2.1 28.3 94 -2.9 26.8
04:40 1018 30.06 848 25.04 -2 28.4 94 -2.8 26.9
04:45 1019 30.09 848 25.04 -2.1 28.2 94 -2.9 26.7
04:50 1019 30.09 848 25.04 -2.1 28.2 94 -2.9 26.8
04:55 1019 30.09 848 25.04 -2.1 28.2 94 -2.9 26.7
05:00 1019 30.09 848 25.04 -2.2 28.1 94 -3 26.6
05:05 1019 30.09 848 25.04 -2.2 28.1 94 -3 26.6
05:10 1019 30.09 848 25.04 -2.2 28 94 -3 26.6
05:15 1019 30.09 848 25.04 -2.2 28.1 94 -3 26.6
05:20 1019 30.09 848 25.04 -2.1 28.2 94 -2.9 26.7
05:25 1019 30.09 848 25.04 -2.1 28.2 94 -2.9 26.7
05:30 1019 30.09 848 25.04 -2.1 28.2 94 -2.9 26.8
05:35 1019 30.09 848 25.04 -2.1 28.2 94 -2.9 26.8
05:40 1019 30.09 848 25.04 -2.1 28.3 94 -2.9 26.8
05:45 1019 30.09 848 25.04 -2.1 28.3 94 -2.9 26.8
05:50 1019 30.09 848 25.04 -2 28.3 94 -2.9 26.8
05:55 1019 30.09 848 25.04 -2.1 28.3 94 -2.9 26.8
06:00 1019 30.09 848 25.04 -2.1 28.2 94 -2.9 26.7
06:05 1019 30.09 848 25.04 -2.1 28.2 94 -3 26.7
06:10 1019 30.09 848 25.04 -2.2 28.1 94 -3 26.6
06:15 1019 30.09 848 25.04 -2.1 28.2 94 -2.9 26.7
06:20 1019 30.09 848 25.04 -2.1 28.2 94 -2.9 26.7
06:25 1019 30.09 848 25.04 -2.1 28.3 94 -2.9 26.8
06:30 1019 30.09 848 25.04 -2 28.3 94 -2.8 26.9
06:35 1019 30.09 848 25.04 -2 28.4 94 -2.8 27
06:40 1019 30.09 848 25.04 -2 28.4 94 -2.8 27
06:45 1019 30.09 848 25.04 -2 28.4 94 -2.8 26.9
06:50 1019 30.09 848 25.04 -2 28.4 94 -2.8 26.9
06:55 1019 30.09 849 25.07 -1.9 28.5 94 -2.8 27
07:00 1019 30.09 849 25.07 -1.8 28.7 94 -2.7 27.2
07:05 1019 30.09 849 25.07 -1.8 28.8 94 -2.6 27.2
07:10 1020 30.12 849 25.07 -1.8 28.8 94 -2.6 27.2
07:15 1020 30.12 849 25.07 -1.7 28.9 94 -2.6 27.3
07:20 1020 30.12 849 25.07 -1.7 29 94 -2.5 27.4
07:25 1020 30.12 849 25.07 -1.6 29.2 94 -2.5 27.6
07:30 1020 30.12 849 25.07 -1.5 29.4 93 -2.4 27.6
07:35 1020 30.12 849 25.07 -1.5 29.4 93 -2.5 27.5
07:40 1020 30.12 849 25.07 -1.5 29.4 93 -2.5 27.5
07:45 1020 30.12 849 25.07 -1.3 29.6 92 -2.5 27.5
07:50 1020 30.12 849 25.07 -1.5 29.4 92 -2.6 27.3
07:55 1020 30.12 849 25.07 -1.5 29.4 92 -2.6 27.4
08:00 1020 30.12 849 25.07 -1.4 29.4 92 -2.5 27.4
08:05 1020 30.12 849 25.07 -1 30.2 91 -2.2 28
08:10 1020 30.12 849 25.07 -0.7 30.7 91 -2.1 28.3
08:15 1020 30.12 849 25.07 -0.5 31.1 90 -2 28.3
08:20 1020 30.12 849 25.07 -0.4 31.2 89 -2 28.4
08:25 1020 30.12 849 25.07 -0.4 31.3 89 -2 28.4
08:30 1020 30.12 849 25.07 -0.4 31.3 88 -2.1 28.1
08:35 1020 30.12 849 25.07 -0.5 31.1 88 -2.3 27.9
08:40 1020 30.12 849 25.07 -0.5 31.1 88 -2.2 28.1
08:45 1020 30.12 849 25.07 -0.4 31.3 88 -2.2 28.1
08:50 1020 30.12 849 25.07 -0.2 31.6 86 -2.3 27.9
08:55 1020 30.12 849 25.07 -0.4 31.3 86 -2.4 27.6
09:00 1020 30.12 849 25.07 -0.6 30.9 88 -2.3 27.8
09:05 1020 30.12 849 25.07 -0 31.9 86 -2.2 28.1
09:10 1020 30.12 849 25.07 0.3 32.6 84 -2.1 28.3
09:15 1020 30.12 850 25.1 0.5 33 84 -1.8 28.8
09:20 1020 30.12 850 25.1 1.8 35.2 81 -1.2 29.9
09:25 1020 30.12 850 25.1 2.2 36 78 -1.2 29.9
09:30 1020 30.12 850 25.1 2.4 36.4 73 -1.9 28.6
09:35 1020 30.12 850 25.1 1.8 35.3 79 -1.5 29.3
09:40 1021 30.15 850 25.1 2.1 35.8 78 -1.3 29.6
09:45 1021 30.15 850 25.1 2.5 36.5 76 -1.4 29.5
09:50 1021 30.15 850 25.1 2.6 36.7 76 -1.2 29.9
09:55 1021 30.15 850 25.1 2.5 36.5 77 -1.2 29.8
10:00 1021 30.15 850 25.1 2.8 37 73 -1.6 29.1
10:05 1021 30.15 850 25.1 1.9 35.4 81 -1 30.3
10:10 1021 30.15 850 25.1 2 35.6 79 -1.3 29.7
10:15 1021 30.15 850 25.1 3.3 38 69 -1.8 28.8
10:20 1021 30.15 850 25.1 3.5 38.3 72 -1.1 30
10:25 1021 30.15 850 25.1 3.5 38.3 71 -1.3 29.7
10:30 1021 30.15 850 25.1 4.1 39.3 67 -1.6 29.2
10:35 1021 30.15 850 25.1 3.2 37.8 69 -2 28.4
10:40 1021 30.15 850 25.1 3.3 38 66 -2.4 27.7
10:45 1021 30.15 850 25.1 3.4 38.1 68 -2 28.4
10:50 1021 30.15 850 25.1 3.7 38.7 67 -1.9 28.6
10:55 1021 30.15 850 25.1 3.9 39.1 69 -1.2 29.8
11:00 1021 30.15 850 25.1 3.2 37.7 72 -1.3 29.6
11:05 1021 30.15 850 25.1 2.6 36.7 76 -1.3 29.7
11:10 1021 30.15 850 25.1 2.2 36 75 -1.7 28.9
11:15 1021 30.15 850 25.1 2.6 36.7 67 -2.9 26.8
11:20 1021 30.15 850 25.1 3 37.5 66 -2.8 27
11:25 1021 30.15 850 25.1 3.1 37.5 62 -3.6 25.6
11:30 1021 30.15 850 25.1 3.1 37.6 61 -3.7 25.4
11:35 1021 30.15 850 25.1 3.4 38.2 62 -3.2 26.2
11:40 1021 30.15 850 25.1 3.7 38.7 57 -3.9 24.9
11:45 1021 30.15 850 25.1 3.3 37.9 62 -3.2 26.2
11:50 1021 30.15 850 25.1 3.4 38.1 59 -3.8 25.2
11:55 1021 30.15 850 25.1 3.7 38.7 60 -3.4 25.9
12:00 1021 30.15 850 25.1 4 39.3 57 -3.8 25.2
12:05 1021 30.15 850 25.1 4.2 39.5 56 -3.9 25
12:10 1021 30.15 850 25.1 4.5 40.2 55 -3.6 25.5
12:15 1021 30.15 850 25.1 4.3 39.7 47 -5.9 21.4
12:20 1021 30.15 850 25.1 4 39.2 49 -5.9 21.4
12:25 1021 30.15 850 25.1 4.5 40 49 -5.4 22.2
12:30 1021 30.15 850 25.1 4.5 40.2 49 -5.3 22.5
12:35 1021 30.15 850 25.1 4.8 40.6 45 -6.3 20.7
12:40 1021 30.15 850 25.1 4.4 40 45 -6.4 20.5
12:45 1021 30.15 850 25.1 5.3 41.5 46 -5.3 22.4
12:50 1021 30.15 850 25.1 5.5 41.8 45 -5.6 21.9
12:55 1021 30.15 850 25.1 4.7 40.5 48 -5.3 22.4
13:00 1021 30.15 850 25.1 4.5 40.1 48 -5.5 22.1
13:05 1021 30.15 850 25.1 4.4 39.9 49 -5.5 22.1
13:10 1021 30.15 850 25.1 4.8 40.6 48 -5.3 22.5
13:15 1021 30.15 850 25.1 4.5 40.1 49 -5.2 22.6
13:20 1021 30.15 850 25.1 4.5 40.1 49 -5.2 22.7
13:25 1021 30.15 850 25.1 4.8 40.6 50 -4.9 23.2
13:30 1021 30.15 850 25.1 4.8 40.7 49 -5 22.9
13:35 1021 30.15 850 25.1 4.6 40.3 49 -5.2 22.7
13:40 1021 30.15 850 25.1 5 41 46 -5.6 21.9
13:45 1021 30.15 850 25.1 5.4 41.7 46 -5.2 22.6
13:50 1020 30.12 850 25.1 5.3 41.5 46 -5.4 22.3
13:55 1020 30.12 850 25.1 5.7 42.2 45 -5.4 22.3
14:00 1020 30.12 850 25.1 6.1 43 46 -4.6 23.6
14:05 1020 30.12 850 25.1 6.3 43.4 47 -4 24.7
14:10 1020 30.12 850 25.1 6.2 43.2 48 -3.9 25
14:15 1020 30.12 849 25.07 5.8 42.4 51 -3.4 25.8
14:20 1020 30.12 849 25.07 6.1 43 49 -3.8 25.1
14:25 1020 30.12 849 25.07 6.1 42.9 50 -3.4 25.8
14:30 1020 30.12 849 25.07 5.9 42.7 46 -4.9 23.2
14:35 1020 30.12 849 25.07 5.7 42.3 47 -4.6 23.7
14:40 1020 30.12 849 25.07 5.9 42.6 47 -4.7 23.6
14:45 1020 30.12 849 25.07 6.3 43.3 44 -4.9 23.1
14:50 1020 30.12 849 25.07 6.5 43.8 44 -5 23.1
14:55 1020 30.12 849 25.07 6.1 43 45 -5 23.1
15:00 1020 30.12 849 25.07 5.9 42.7 45 -5 23.1
15:05 1020 30.12 849 25.07 5.8 42.4 48 -4.4 24.1
15:10 1020 30.12 849 25.07 5.8 42.4 45 -5.1 22.8
15:15 1020 30.12 849 25.07 5.9 42.6 46 -4.8 23.4
15:20 1020 30.12 849 25.07 6 42.7 43 -5.6 21.9
15:25 1020 30.12 849 25.07 6.3 43.3 43 -5.5 22
15:30 1020 30.12 849 25.07 6.3 43.3 42 -5.6 21.8
15:35 1020 30.12 849 25.07 6.3 43.4 44 -5.1 22.7
15:40 1020 30.12 849 25.07 5.7 42.3 45 -5.3 22.5
15:45 1019 30.09 849 25.07 5.3 41.6 46 -5.4 22.2
15:50 1019 30.09 849 25.07 5.3 41.6 47 -5 23.1
15:55 1019 30.09 849 25.07 5.2 41.4 48 -4.9 23.2
16:00 1019 30.09 849 25.07 5.2 41.4 49 -4.5 23.9
16:05 1019 30.09 849 25.07 5.2 41.3 50 -4.3 24.2
16:10 1020 30.12 849 25.07 5.3 41.5 50 -4.3 24.2
16:15 1020 30.12 849 25.07 5.6 42 52 -3.4 25.9
16:20 1020 30.12 849 25.07 5.1 41.2 57 -2.8 27
16:25 1019 30.09 849 25.07 5.1 41.2 53 -3.7 25.3
16:30 1019 30.09 849 25.07 5.4 41.7 54 -3.2 26.2
16:35 1019 30.09 849 25.07 5.2 41.4 59 -2.1 28.2
16:40 1019 30.09 849 25.07 4.5 40.1 62 -2.1 28.3
16:45 1019 30.09 849 25.07 3.9 39.1 67 -1.6 29.1
16:50 1019 30.09 849 25.07 3.7 38.7 67 -1.8 28.7
16:55 1019 30.09 849 25.07 3.5 38.3 67 -2 28.4
17:00 1020 30.12 849 25.07 3.6 38.5 68 -1.8 28.7
17:05 1020 30.12 849 25.07 3.8 38.9 68 -1.5 29.3
17:10 1020 30.12 849 25.07 3.3 37.9 75 -0.7 30.8
17:15 1020 30.12 849 25.07 2.8 37 77 -0.9 30.4
17:20 1020 30.12 849 25.07 2.7 36.8 77 -0.9 30.3
17:25 1020 30.12 849 25.07 2.7 36.9 77 -0.9 30.4
17:30 1020 30.12 849 25.07 2.9 37.2 75 -1.2 29.9
17:35 1020 30.12 849 25.07 2.9 37.3 75 -1.1 30
17:40 1020 30.12 849 25.07 3.2 37.7 74 -1 30.3
17:45 1020 30.12 849 25.07 3.1 37.6 76 -0.8 30.5
17:50 1020 30.12 849 25.07 3.2 37.7 76 -0.6 31
17:55 1020 30.12 849 25.07 3.1 37.6 75 -0.8 30.6
18:00 1020 30.12 849 25.07 3.1 37.5 76 -0.7 30.7
18:05 1020 30.12 849 25.07 3.1 37.6 74 -1 30.2
18:10 1020 30.12 849 25.07 3 37.4 77 -0.7 30.8
18:15 1020 30.12 849 25.07 2.6 36.8 79 -0.7 30.8
18:20 1020 30.12 849 25.07 2.6 36.6 79 -0.8 30.6
18:25 1020 30.12 849 25.07 2.7 36.8 77 -1 30.2
18:30 1020 30.12 849 25.07 2.8 37 76 -1 30.1
18:35 1020 30.12 849 25.07 2.8 37 76 -1.1 30.1
18:40 1020 30.12 849 25.07 2.8 37 76 -1.1 30
18:45 1020 30.12 849 25.07 2.7 36.8 76 -1.2 29.9
18:50 1020 30.12 849 25.07 2.4 36.4 77 -1.2 29.9
18:55 1020 30.12 849 25.07 2.2 36 79 -1 30.3
19:00 1020 30.12 849 25.07 2 35.6 80 -1 30.1
19:05 1020 30.12 849 25.07 1.9 35.4 80 -1.2 29.9
19:10 1020 30.12 849 25.07 1.9 35.3 81 -1 30.2
19:15 1020 30.12 849 25.07 1.7 35.1 81 -1.1 29.9
19:20 1020 30.12 849 25.07 1.8 35.2 76 -2.1 28.3
19:25 1020 30.12 849 25.07 2.1 35.8 79 -1.2 29.9
19:30 1020 30.12 849 25.07 1.8 35.3 81 -1.2 29.9
19:35 1020 30.12 849 25.07 1.5 34.7 82 -1.2 29.8
19:40 1020 30.12 849 25.07 1.5 34.8 81 -1.3 29.7
19:45 1020 30.12 849 25.07 1.6 34.9 80 -1.5 29.3
19:50 1020 30.12 849 25.07 1.9 35.4 77 -1.8 28.8
19:55 1020 30.12 849 25.07 2.2 35.9 71 -2.5 27.5
20:00 1020 30.12 849 25.07 2.5 36.5 62 -4 24.8
20:05 1020 30.12 849 25.07 3 37.3 58 -4.5 24
20:10 1020 30.12 849 25.07 3.2 37.7 58 -4.2 24.5
20:15 1020 30.12 849 25.07 3.2 37.7 58 -4.2 24.4
20:20 1020 30.12 849 25.07 3 37.5 58 -4.4 24.1
20:25 1020 30.12 849 25.07 2.9 37.2 59 -4.3 24.3
20:30 1020 30.12 849 25.07 2.8 37 59 -4.3 24.2
20:35 1020 30.12 849 25.07 2.6 36.7 61 -4.2 24.4
20:40 1020 30.12 849 25.07 2.5 36.5 61 -4.3 24.3
20:45 1020 30.12 849 25.07 2.4 36.3 60 -4.6 23.8
20:50 1019 30.09 849 25.07 2.3 36.1 61 -4.4 24.1
20:55 1019 30.09 849 25.07 2.1 35.9 59 -4.9 23.1
21:00 1019 30.09 849 25.07 2.1 35.8 60 -4.7 23.5
21:05 1019 30.09 849 25.07 2.1 35.7 59 -5.1 22.8
21:10 1019 30.09 849 25.07 2.1 35.7 60 -4.9 23.3
21:15 1019 30.09 849 25.07 1.9 35.4 63 -4.5 23.9
21:20 1019 30.09 849 25.07 1.7 35.1 62 -4.8 23.4
21:25 1019 30.09 849 25.07 1.9 35.4 61 -4.9 23.2
21:30 1020 30.12 849 25.07 1.8 35.3 61 -4.8 23.4
21:35 1019 30.09 849 25.07 1.8 35.2 61 -4.9 23.2
21:40 1019 30.09 849 25.07 1.9 35.4 61 -4.8 23.3
21:45 1019 30.09 849 25.07 1.9 35.4 61 -4.8 23.4
21:50 1019 30.09 849 25.07 1.9 35.4 60 -5 23
21:55 1019 30.09 849 25.07 1.9 35.4 60 -5.2 22.7
22:00 1019 30.09 849 25.07 1.8 35.3 59 -5.2 22.6
22:05 1019 30.09 849 25.07 1.8 35.2 62 -4.8 23.4
22:10 1019 30.09 849 25.07 1.6 34.9 62 -4.9 23.2
22:15 1019 30.09 849 25.07 1.7 35 60 -5.2 22.6
22:20 1019 30.09 849 25.07 1.7 35 61 -5.1 22.8
22:25 1019 30.09 849 25.07 1.4 34.5 63 -4.9 23.1
22:30 1020 30.12 849 25.07 1.2 34.1 63 -5.2 22.6
22:35 1019 30.09 849 25.07 1.2 34.2 60 -5.7 21.8
22:40 1019 30.09 849 25.07 1.5 34.8 57 -6.1 21
22:45 1019 30.09 849 25.07 1.7 35.1 55 -6.3 20.7
22:50 1019 30.09 849 25.07 1.8 35.2 55 -6.2 20.9
22:55 1019 30.09 849 25.07 1.7 35.1 54 -6.6 20.1
23:00 1019 30.09 849 25.07 1.9 35.4 54 -6.6 20.2
23:05 1019 30.09 849 25.07 2 35.5 52 -6.8 19.7
23:10 1019 30.09 849 25.07 1.9 35.5 53 -6.6 20
23:15 1019 30.09 849 25.07 1.7 35.1 56 -6.2 20.8
23:20 1019 30.09 849 25.07 1.3 34.4 58 -6 21.2
23:25 1019 30.09 849 25.07 1.1 34 57 -6.4 20.4
23:30 1019 30.09 849 25.07 1.3 34.4 58 -6 21.2
23:35 1019 30.09 849 25.07 1.2 34.1 58 -6.1 21.1
23:40 1019 30.09 849 25.07 1 33.8 60 -5.9 21.4
23:45 1019 30.09 849 25.07 0.8 33.4 62 -5.7 21.8
23:50 1019 30.09 848 25.04 0.5 32.9 63 -5.7 21.7
23:55 1019 30.09 848 25.04 0.2 32.4 64 -5.9 21.4
24:00 1019 30.09 848 25.04 0.1 32.2 63 -6.2 20.9